sensor_id;sensor_type;location;lat;lon;timestamp;pressure;altitude;pressure_sealevel;temperature;humidity
47883;BME280;37739;50.350;7.578;2023-02-04T00:01:25;101156.06;;;7.94;81.44
47883;BME280;37739;50.350;7.578;2023-02-04T00:03:50;101157.72;;;7.94;81.29
47883;BME280;37739;50.350;7.578;2023-02-04T00:06:18;101159.81;;;7.99;80.93
47883;BME280;37739;50.350;7.578;2023-02-04T00:08:48;101168.19;;;7.97;80.69
47883;BME280;37739;50.350;7.578;2023-02-04T00:11:15;101155.41;;;7.85;81.34
47883;BME280;37739;50.350;7.578;2023-02-04T00:13:41;101157.66;;;7.80;80.99
47883;BME280;37739;50.350;7.578;2023-02-04T00:16:06;101147.84;;;7.86;81.15
47883;BME280;37739;50.350;7.578;2023-02-04T00:18:34;101164.06;;;7.87;80.40
47883;BME280;37739;50.350;7.578;2023-02-04T00:21:01;101172.19;;;7.93;81.25
47883;BME280;37739;50.350;7.578;2023-02-04T00:23:27;101174.28;;;7.87;81.45
47883;BME280;37739;50.350;7.578;2023-02-04T00:25:55;101179.88;;;7.81;81.84
47883;BME280;37739;50.350;7.578;2023-02-04T00:28:20;101173.09;;;7.82;82.09
47883;BME280;37739;50.350;7.578;2023-02-04T00:30:48;101176.84;;;7.87;82.33
47883;BME280;37739;50.350;7.578;2023-02-04T00:33:13;101184.72;;;7.90;82.24
47883;BME280;37739;50.350;7.578;2023-02-04T00:35:39;101182.31;;;7.80;82.98
47883;BME280;37739;50.350;7.578;2023-02-04T00:38:06;101192.31;;;7.77;83.30
47883;BME280;37739;50.350;7.578;2023-02-04T00:40:32;101196.66;;;7.78;83.08
47883;BME280;37739;50.350;7.578;2023-02-04T00:42:57;101198.97;;;7.75;82.97
47883;BME280;37739;50.350;7.578;2023-02-04T00:45:23;101198.88;;;7.73;83.24
47883;BME280;37739;50.350;7.578;2023-02-04T00:47:51;101207.22;;;7.71;83.48
47883;BME280;37739;50.350;7.578;2023-02-04T00:50:18;101217.66;;;7.74;83.51
47883;BME280;37739;50.350;7.578;2023-02-04T00:52:46;101207.44;;;7.74;83.55
47883;BME280;37739;50.350;7.578;2023-02-04T00:55:18;101202.41;;;7.75;83.94
47883;BME280;37739;50.350;7.578;2023-02-04T00:57:44;101199.56;;;7.71;83.87
47883;BME280;37739;50.350;7.578;2023-02-04T01:00:16;101206.41;;;7.72;83.87
47883;BME280;37739;50.350;7.578;2023-02-04T01:02:44;101206.22;;;7.69;84.18
47883;BME280;37739;50.350;7.578;2023-02-04T01:05:09;101214.66;;;7.67;84.30
47883;BME280;37739;50.350;7.578;2023-02-04T01:07:35;101211.44;;;7.70;84.27
47883;BME280;37739;50.350;7.578;2023-02-04T01:10:03;101218.13;;;7.68;84.56
47883;BME280;37739;50.350;7.578;2023-02-04T01:12:31;101211.00;;;7.76;84.43
47883;BME280;37739;50.350;7.578;2023-02-04T01:14:56;101215.31;;;7.77;84.21
47883;BME280;37739;50.350;7.578;2023-02-04T01:17:22;101224.97;;;7.69;83.93
47883;BME280;37739;50.350;7.578;2023-02-04T01:19:49;101224.09;;;7.69;82.76
47883;BME280;37739;50.350;7.578;2023-02-04T01:22:17;101230.22;;;7.71;81.62
47883;BME280;37739;50.350;7.578;2023-02-04T01:24:45;101235.00;;;7.66;81.74
47883;BME280;37739;50.350;7.578;2023-02-04T01:27:12;101239.00;;;7.62;81.95
47883;BME280;37739;50.350;7.578;2023-02-04T01:29:38;101245.66;;;7.60;82.89
47883;BME280;37739;50.350;7.578;2023-02-04T01:32:03;101245.53;;;7.59;83.65
47883;BME280;37739;50.350;7.578;2023-02-04T01:34:28;101242.88;;;7.69;83.76
47883;BME280;37739;50.350;7.578;2023-02-04T01:36:55;101251.84;;;7.64;83.97
47883;BME280;37739;50.350;7.578;2023-02-04T01:39:23;101250.84;;;7.62;84.69
47883;BME280;37739;50.350;7.578;2023-02-04T01:41:51;101250.31;;;7.54;86.32
47883;BME280;37739;50.350;7.578;2023-02-04T01:44:19;101257.97;;;7.54;87.13
47883;BME280;37739;50.350;7.578;2023-02-04T01:46:46;101263.63;;;7.50;88.38
47883;BME280;37739;50.350;7.578;2023-02-04T01:49:17;101273.97;;;7.28;90.80
47883;BME280;37739;50.350;7.578;2023-02-04T01:51:42;101268.72;;;7.26;91.58
47883;BME280;37739;50.350;7.578;2023-02-04T01:54:11;101265.06;;;7.35;91.79
47883;BME280;37739;50.350;7.578;2023-02-04T01:56:42;101265.97;;;7.35;91.41
47883;BME280;37739;50.350;7.578;2023-02-04T01:59:13;101265.94;;;7.23;90.98
47883;BME280;37739;50.350;7.578;2023-02-04T02:04:16;101280.63;;;7.26;92.12
47883;BME280;37739;50.350;7.578;2023-02-04T02:06:46;101279.44;;;6.99;93.92
47883;BME280;37739;50.350;7.578;2023-02-04T02:09:12;101279.53;;;7.00;94.14
47883;BME280;37739;50.350;7.578;2023-02-04T02:11:40;101279.53;;;7.00;94.14
47883;BME280;37739;50.350;7.578;2023-02-04T02:14:06;101279.13;;;7.06;94.24
47883;BME280;37739;50.350;7.578;2023-02-04T02:16:31;101270.25;;;7.01;94.33
47883;BME280;37739;50.350;7.578;2023-02-04T02:18:56;101268.91;;;7.06;94.12
47883;BME280;37739;50.350;7.578;2023-02-04T02:21:37;101269.81;;;7.06;94.08
47883;BME280;37739;50.350;7.578;2023-02-04T02:26:48;101271.59;;;7.19;93.89
47883;BME280;37739;50.350;7.578;2023-02-04T02:29:13;101282.25;;;7.14;93.33
47883;BME280;37739;50.350;7.578;2023-02-04T02:31:38;101288.31;;;7.04;93.83
47883;BME280;37739;50.350;7.578;2023-02-04T02:34:07;101299.72;;;6.85;93.97
47883;BME280;37739;50.350;7.578;2023-02-04T02:36:32;101304.03;;;6.86;95.14
47883;BME280;37739;50.350;7.578;2023-02-04T02:38:58;101307.13;;;6.82;95.04
47883;BME280;37739;50.350;7.578;2023-02-04T02:41:24;101307.91;;;6.81;95.09
47883;BME280;37739;50.350;7.578;2023-02-04T02:43:49;101311.47;;;6.83;95.53
47883;BME280;37739;50.350;7.578;2023-02-04T02:46:19;101308.78;;;6.82;94.78
47883;BME280;37739;50.350;7.578;2023-02-04T02:48:44;101314.97;;;6.74;95.63
47883;BME280;37739;50.350;7.578;2023-02-04T02:51:12;101310.34;;;6.80;95.87
47883;BME280;37739;50.350;7.578;2023-02-04T02:53:38;101313.53;;;6.77;95.56
47883;BME280;37739;50.350;7.578;2023-02-04T02:56:03;101318.16;;;6.93;95.10
47883;BME280;37739;50.350;7.578;2023-02-04T02:58:36;101304.72;;;6.96;94.39
47883;BME280;37739;50.350;7.578;2023-02-04T03:01:06;101303.59;;;6.92;93.73
47883;BME280;37739;50.350;7.578;2023-02-04T03:03:37;101306.56;;;6.86;94.59
47883;BME280;37739;50.350;7.578;2023-02-04T03:06:10;101308.53;;;7.01;94.29
47883;BME280;37739;50.350;7.578;2023-02-04T03:08:36;101313.09;;;7.05;93.35
47883;BME280;37739;50.350;7.578;2023-02-04T03:11:03;101315.22;;;7.11;92.61
47883;BME280;37739;50.350;7.578;2023-02-04T03:13:29;101313.09;;;7.05;92.21
47883;BME280;37739;50.350;7.578;2023-02-04T03:15:57;101315.47;;;6.92;93.08
47883;BME280;37739;50.350;7.578;2023-02-04T03:18:25;101323.22;;;6.81;93.39
47883;BME280;37739;50.350;7.578;2023-02-04T03:20:54;101334.34;;;6.72;94.00
47883;BME280;37739;50.350;7.578;2023-02-04T03:23:22;101332.47;;;6.69;93.74
47883;BME280;37739;50.350;7.578;2023-02-04T03:25:47;101330.84;;;6.59;94.31
47883;BME280;37739;50.350;7.578;2023-02-04T03:28:13;101335.41;;;6.63;94.52
47883;BME280;37739;50.350;7.578;2023-02-04T03:30:38;101336.31;;;6.64;94.60
47883;BME280;37739;50.350;7.578;2023-02-04T03:33:06;101329.72;;;6.56;94.15
47883;BME280;37739;50.350;7.578;2023-02-04T03:35:34;101338.16;;;6.55;95.12
47883;BME280;37739;50.350;7.578;2023-02-04T03:38:02;101335.28;;;6.62;94.61
47883;BME280;37739;50.350;7.578;2023-02-04T03:40:27;101342.84;;;6.60;94.32
47883;BME280;37739;50.350;7.578;2023-02-04T03:42:57;101342.13;;;6.51;94.59
47883;BME280;37739;50.350;7.578;2023-02-04T03:45:24;101348.13;;;6.52;94.49
47883;BME280;37739;50.350;7.578;2023-02-04T03:47:50;101354.50;;;6.46;94.38
47883;BME280;37739;50.350;7.578;2023-02-04T03:50:15;101361.19;;;6.34;95.16
47883;BME280;37739;50.350;7.578;2023-02-04T03:52:43;101363.00;;;6.35;95.80
47883;BME280;37739;50.350;7.578;2023-02-04T03:55:09;101364.00;;;6.37;95.91
47883;BME280;37739;50.350;7.578;2023-02-04T03:57:37;101355.34;;;6.35;95.65
47883;BME280;37739;50.350;7.578;2023-02-04T04:00:05;101350.84;;;6.43;95.28
47883;BME280;37739;50.350;7.578;2023-02-04T04:02:30;101360.75;;;6.50;95.22
47883;BME280;37739;50.350;7.578;2023-02-04T04:04:55;101354.28;;;6.43;94.96
47883;BME280;37739;50.350;7.578;2023-02-04T04:07:23;101350.13;;;6.34;95.41
47883;BME280;37739;50.350;7.578;2023-02-04T04:09:48;101360.72;;;6.28;96.00
47883;BME280;37739;50.350;7.578;2023-02-04T04:12:13;101358.06;;;6.26;95.70
47883;BME280;37739;50.350;7.578;2023-02-04T04:14:39;101360.31;;;6.34;95.58
47883;BME280;37739;50.350;7.578;2023-02-04T04:17:04;101361.47;;;6.37;94.90
47883;BME280;37739;50.350;7.578;2023-02-04T04:19:29;101364.22;;;6.40;94.93
47883;BME280;37739;50.350;7.578;2023-02-04T04:21:56;101369.97;;;6.38;94.51
47883;BME280;37739;50.350;7.578;2023-02-04T04:24:21;101365.50;;;6.45;94.42
47883;BME280;37739;50.350;7.578;2023-02-04T04:26:49;101362.22;;;6.36;94.71
47883;BME280;37739;50.350;7.578;2023-02-04T04:29:18;101355.03;;;6.42;94.88
47883;BME280;37739;50.350;7.578;2023-02-04T04:31:44;101358.59;;;6.44;94.36
47883;BME280;37739;50.350;7.578;2023-02-04T04:34:10;101360.59;;;6.48;94.55
47883;BME280;37739;50.350;7.578;2023-02-04T04:36:35;101361.81;;;6.64;94.16
47883;BME280;37739;50.350;7.578;2023-02-04T04:39:03;101366.16;;;6.65;92.74
47883;BME280;37739;50.350;7.578;2023-02-04T04:41:30;101367.03;;;6.65;93.17
47883;BME280;37739;50.350;7.578;2023-02-04T04:43:56;101368.03;;;6.45;92.64
47883;BME280;37739;50.350;7.578;2023-02-04T04:46:21;101369.31;;;6.40;93.25
47883;BME280;37739;50.350;7.578;2023-02-04T04:48:46;101367.19;;;6.35;93.97
47883;BME280;37739;50.350;7.578;2023-02-04T04:51:12;101376.84;;;6.39;93.69
47883;BME280;37739;50.350;7.578;2023-02-04T04:53:39;101372.41;;;6.36;93.41
47883;BME280;37739;50.350;7.578;2023-02-04T04:56:05;101380.19;;;6.38;93.01
47883;BME280;37739;50.350;7.578;2023-02-04T04:58:30;101378.59;;;6.50;93.76
47883;BME280;37739;50.350;7.578;2023-02-04T05:00:58;101369.81;;;6.46;93.11
47883;BME280;37739;50.350;7.578;2023-02-04T05:03:23;101371.13;;;6.41;92.79
47883;BME280;37739;50.350;7.578;2023-02-04T05:05:49;101369.31;;;6.40;93.03
47883;BME280;37739;50.350;7.578;2023-02-04T05:08:14;101380.91;;;6.47;92.52
47883;BME280;37739;50.350;7.578;2023-02-04T05:10:42;101390.84;;;6.44;92.35
47883;BME280;37739;50.350;7.578;2023-02-04T05:13:08;101386.41;;;6.41;92.23
47883;BME280;37739;50.350;7.578;2023-02-04T05:15:34;101387.56;;;6.45;92.56
47883;BME280;37739;50.350;7.578;2023-02-04T05:17:59;101385.88;;;6.45;92.23
47883;BME280;37739;50.350;7.578;2023-02-04T05:20:26;101391.88;;;6.46;92.12
47883;BME280;37739;50.350;7.578;2023-02-04T05:22:54;101394.09;;;6.31;92.35
47883;BME280;37739;50.350;7.578;2023-02-04T05:25:23;101394.47;;;6.25;92.61
47883;BME280;37739;50.350;7.578;2023-02-04T05:27:50;101410.50;;;6.35;92.56
47883;BME280;37739;50.350;7.578;2023-02-04T05:30:16;101414.59;;;6.33;92.85
47883;BME280;37739;50.350;7.578;2023-02-04T05:32:41;101406.44;;;6.37;92.63
47883;BME280;37739;50.350;7.578;2023-02-04T05:35:07;101412.31;;;6.36;92.53
47883;BME280;37739;50.350;7.578;2023-02-04T05:37:32;101417.06;;;6.21;93.33
47883;BME280;37739;50.350;7.578;2023-02-04T05:39:57;101407.63;;;6.30;93.34
47883;BME280;37739;50.350;7.578;2023-02-04T05:42:25;101410.13;;;6.40;92.47
47883;BME280;37739;50.350;7.578;2023-02-04T05:44:53;101417.22;;;6.44;93.04
47883;BME280;37739;50.350;7.578;2023-02-04T05:47:21;101412.78;;;6.42;92.95
47883;BME280;37739;50.350;7.578;2023-02-04T05:49:48;101404.38;;;6.43;92.19
47883;BME280;37739;50.350;7.578;2023-02-04T05:52:14;101404.66;;;6.36;92.48
47883;BME280;37739;50.350;7.578;2023-02-04T05:54:41;101412.84;;;6.32;92.77
47883;BME280;37739;50.350;7.578;2023-02-04T05:57:07;101419.34;;;6.28;93.32
47883;BME280;37739;50.350;7.578;2023-02-04T05:59:35;101415.13;;;6.28;93.36
47883;BME280;37739;50.350;7.578;2023-02-04T06:02:00;101421.38;;;6.32;93.27
47883;BME280;37739;50.350;7.578;2023-02-04T06:04:25;101419.69;;;6.33;93.26
47883;BME280;37739;50.350;7.578;2023-02-04T06:06:50;101420.09;;;6.37;93.13
47883;BME280;37739;50.350;7.578;2023-02-04T06:09:16;101421.97;;;6.40;92.68
47883;BME280;37739;50.350;7.578;2023-02-04T06:11:44;101429.63;;;6.40;92.57
47883;BME280;37739;50.350;7.578;2023-02-04T06:14:09;101432.69;;;6.36;92.78
47883;BME280;37739;50.350;7.578;2023-02-04T06:16:35;101437.19;;;6.28;93.04
47883;BME280;37739;50.350;7.578;2023-02-04T06:19:00;101445.31;;;6.34;93.06
47883;BME280;37739;50.350;7.578;2023-02-04T06:21:26;101446.06;;;6.33;92.58
47883;BME280;37739;50.350;7.578;2023-02-04T06:23:54;101444.56;;;6.35;92.78
47883;BME280;37739;50.350;7.578;2023-02-04T06:26:19;101453.63;;;6.32;92.86
47883;BME280;37739;50.350;7.578;2023-02-04T06:28:45;101454.50;;;6.32;92.91
47883;BME280;37739;50.350;7.578;2023-02-04T06:31:10;101462.41;;;6.35;92.91
47883;BME280;37739;50.350;7.578;2023-02-04T06:33:35;101460.88;;;6.37;92.90
47883;BME280;37739;50.350;7.578;2023-02-04T06:36:02;101468.91;;;6.32;92.33
47883;BME280;37739;50.350;7.578;2023-02-04T06:38:28;101463.06;;;6.22;93.51
47883;BME280;37739;50.350;7.578;2023-02-04T06:40:53;101471.84;;;6.26;93.23
47883;BME280;37739;50.350;7.578;2023-02-04T06:43:21;101475.56;;;6.29;93.04
47883;BME280;37739;50.350;7.578;2023-02-04T06:45:50;101483.19;;;6.29;93.21
47883;BME280;37739;50.350;7.578;2023-02-04T06:48:17;101477.97;;;6.28;92.99
47883;BME280;37739;50.350;7.578;2023-02-04T06:50:47;101491.22;;;6.24;93.53
47883;BME280;37739;50.350;7.578;2023-02-04T06:53:15;101489.84;;;6.27;93.04
47883;BME280;37739;50.350;7.578;2023-02-04T06:55:42;101481.66;;;6.21;93.07
47883;BME280;37739;50.350;7.578;2023-02-04T06:58:10;101489.31;;;6.21;93.19
47883;BME280;37739;50.350;7.578;2023-02-04T07:00:37;101496.31;;;6.24;93.50
47883;BME280;37739;50.350;7.578;2023-02-04T07:03:03;101498.72;;;6.33;93.06
47883;BME280;37739;50.350;7.578;2023-02-04T07:05:28;101501.53;;;6.25;92.83
47883;BME280;37739;50.350;7.578;2023-02-04T07:07:56;101505.59;;;6.23;93.21
47883;BME280;37739;50.350;7.578;2023-02-04T07:10:23;101509.78;;;6.33;93.03
47883;BME280;37739;50.350;7.578;2023-02-04T07:12:49;101516.44;;;6.31;92.74
47883;BME280;37739;50.350;7.578;2023-02-04T07:15:14;101508.16;;;6.34;92.54
47883;BME280;37739;50.350;7.578;2023-02-04T07:17:40;101515.94;;;6.35;92.64
47883;BME280;37739;50.350;7.578;2023-02-04T07:20:11;101506.22;;;6.31;92.57
47883;BME280;37739;50.350;7.578;2023-02-04T07:22:36;101513.66;;;6.28;92.59
47883;BME280;37739;50.350;7.578;2023-02-04T07:25:02;101515.94;;;6.25;92.49
47883;BME280;37739;50.350;7.578;2023-02-04T07:27:30;101526.63;;;6.31;92.32
47883;BME280;37739;50.350;7.578;2023-02-04T07:29:55;101529.19;;;6.31;92.51
47883;BME280;37739;50.350;7.578;2023-02-04T07:32:23;101536.06;;;6.32;92.78
47883;BME280;37739;50.350;7.578;2023-02-04T07:34:48;101539.75;;;6.36;92.61
47883;BME280;37739;50.350;7.578;2023-02-04T07:37:13;101541.00;;;6.41;92.10
47883;BME280;37739;50.350;7.578;2023-02-04T07:39:39;101549.72;;;6.43;92.21
47883;BME280;37739;50.350;7.578;2023-02-04T07:42:05;101541.13;;;6.42;92.20
47883;BME280;37739;50.350;7.578;2023-02-04T07:44:30;101544.97;;;6.47;92.38
47883;BME280;37739;50.350;7.578;2023-02-04T07:46:55;101543.16;;;6.57;91.82
47883;BME280;37739;50.350;7.578;2023-02-04T07:49:21;101548.78;;;6.53;91.63
47883;BME280;37739;50.350;7.578;2023-02-04T07:51:49;101547.66;;;6.49;91.75
47883;BME280;37739;50.350;7.578;2023-02-04T07:54:14;101549.16;;;6.57;92.10
47883;BME280;37739;50.350;7.578;2023-02-04T07:56:42;101545.06;;;6.59;91.40
47883;BME280;37739;50.350;7.578;2023-02-04T07:59:09;101545.94;;;6.60;91.83
47883;BME280;37739;50.350;7.578;2023-02-04T08:01:34;101554.34;;;6.69;91.10
47883;BME280;37739;50.350;7.578;2023-02-04T08:04:02;101554.59;;;6.72;90.84
47883;BME280;37739;50.350;7.578;2023-02-04T08:06:28;101555.22;;;6.80;90.57
47883;BME280;37739;50.350;7.578;2023-02-04T08:08:55;101567.97;;;6.80;90.43
47883;BME280;37739;50.350;7.578;2023-02-04T08:11:23;101570.25;;;6.77;90.27
47883;BME280;37739;50.350;7.578;2023-02-04T08:13:51;101567.56;;;6.85;90.67
47883;BME280;37739;50.350;7.578;2023-02-04T08:16:18;101576.06;;;6.96;90.22
47883;BME280;37739;50.350;7.578;2023-02-04T08:18:43;101581.78;;;7.04;89.88
47883;BME280;37739;50.350;7.578;2023-02-04T08:21:09;101583.06;;;7.09;90.11
47883;BME280;37739;50.350;7.578;2023-02-04T08:23:34;101582.53;;;7.13;89.71
47883;BME280;37739;50.350;7.578;2023-02-04T08:26:05;101585.44;;;7.18;89.29
47883;BME280;37739;50.350;7.578;2023-02-04T08:28:35;101585.94;;;7.24;89.60
47883;BME280;37739;50.350;7.578;2023-02-04T08:31:01;101589.91;;;7.20;89.05
47883;BME280;37739;50.350;7.578;2023-02-04T08:33:26;101594.75;;;7.17;89.37
47883;BME280;37739;50.350;7.578;2023-02-04T08:35:53;101587.97;;;7.18;88.82
47883;BME280;37739;50.350;7.578;2023-02-04T08:38:19;101598.97;;;7.17;89.17
47883;BME280;37739;50.350;7.578;2023-02-04T08:40:44;101597.56;;;7.20;89.50
47883;BME280;37739;50.350;7.578;2023-02-04T08:43:12;101595.75;;;7.19;89.46
47883;BME280;37739;50.350;7.578;2023-02-04T08:45:37;101601.00;;;7.21;89.50
47883;BME280;37739;50.350;7.578;2023-02-04T08:48:05;101603.16;;;7.26;89.89
47883;BME280;37739;50.350;7.578;2023-02-04T08:50:34;101601.19;;;7.34;89.46
47883;BME280;37739;50.350;7.578;2023-02-04T08:53:01;101610.75;;;7.37;89.25
47883;BME280;37739;50.350;7.578;2023-02-04T08:55:31;101600.44;;;7.35;89.13
47883;BME280;37739;50.350;7.578;2023-02-04T08:57:57;101608.72;;;7.33;89.62
47883;BME280;37739;50.350;7.578;2023-02-04T09:00:23;101616.16;;;7.30;89.74
47883;BME280;37739;50.350;7.578;2023-02-04T09:02:53;101614.44;;;7.40;89.67
47883;BME280;37739;50.350;7.578;2023-02-04T09:05:19;101615.03;;;7.48;89.10
47883;BME280;37739;50.350;7.578;2023-02-04T09:07:46;101617.88;;;7.41;89.33
47883;BME280;37739;50.350;7.578;2023-02-04T09:10:12;101625.78;;;7.44;89.65
47883;BME280;37739;50.350;7.578;2023-02-04T09:12:37;101625.78;;;7.44;89.18
47883;BME280;37739;50.350;7.578;2023-02-04T09:15:02;101625.13;;;7.46;89.04
47883;BME280;37739;50.350;7.578;2023-02-04T09:17:29;101624.91;;;7.43;89.20
47883;BME280;37739;50.350;7.578;2023-02-04T09:19:54;101631.44;;;7.40;89.17
47883;BME280;37739;50.350;7.578;2023-02-04T09:22:19;101626.19;;;7.38;89.26
47883;BME280;37739;50.350;7.578;2023-02-04T09:24:45;101628.34;;;7.44;88.95
47883;BME280;37739;50.350;7.578;2023-02-04T09:27:12;101628.09;;;7.41;88.36
47883;BME280;37739;50.350;7.578;2023-02-04T09:29:40;101627.75;;;7.36;88.85
47883;BME280;37739;50.350;7.578;2023-02-04T09:32:06;101636.72;;;7.53;89.27
47883;BME280;37739;50.350;7.578;2023-02-04T09:34:31;101639.28;;;7.53;88.41
47883;BME280;37739;50.350;7.578;2023-02-04T09:36:58;101651.38;;;7.66;88.68
47883;BME280;37739;50.350;7.578;2023-02-04T09:39:24;101657.97;;;7.74;87.99
47883;BME280;37739;50.350;7.578;2023-02-04T09:41:49;101654.19;;;7.81;86.99
47883;BME280;37739;50.350;7.578;2023-02-04T09:44:18;101655.00;;;7.80;86.52
47883;BME280;37739;50.350;7.578;2023-02-04T09:46:51;101655.63;;;7.77;85.73
47883;BME280;37739;50.350;7.578;2023-02-04T09:49:17;101659.72;;;7.75;85.99
47883;BME280;37739;50.350;7.578;2023-02-04T09:51:44;101661.75;;;7.79;86.23
47883;BME280;37739;50.350;7.578;2023-02-04T09:56:38;101673.34;;;7.86;85.32
47883;BME280;37739;50.350;7.578;2023-02-04T09:59:12;101676.38;;;7.70;84.04
47883;BME280;37739;50.350;7.578;2023-02-04T10:01:38;101678.69;;;7.67;84.62
47883;BME280;37739;50.350;7.578;2023-02-04T10:04:03;101682.91;;;7.89;85.42
47883;BME280;37739;50.350;7.578;2023-02-04T10:06:29;101677.44;;;7.84;84.48
47883;BME280;37739;50.350;7.578;2023-02-04T10:08:57;101686.72;;;7.94;84.53
47883;BME280;37739;50.350;7.578;2023-02-04T10:11:24;101682.66;;;8.07;84.59
47883;BME280;37739;50.350;7.578;2023-02-04T10:13:53;101685.53;;;8.22;83.63
47883;BME280;37739;50.350;7.578;2023-02-04T10:16:24;101682.78;;;8.09;81.60
47883;BME280;37739;50.350;7.578;2023-02-04T10:18:58;101683.88;;;8.01;82.99
47883;BME280;37739;50.350;7.578;2023-02-04T10:21:31;101679.41;;;7.98;83.29
47883;BME280;37739;50.350;7.578;2023-02-04T10:24:03;101681.72;;;8.17;83.89
47883;BME280;37739;50.350;7.578;2023-02-04T10:26:30;101685.22;;;8.30;82.91
47883;BME280;37739;50.350;7.578;2023-02-04T10:29:11;101682.84;;;8.21;81.76
47883;BME280;37739;50.350;7.578;2023-02-04T10:31:41;101680.81;;;8.17;81.39
47883;BME280;37739;50.350;7.578;2023-02-04T10:36:40;101683.66;;;8.32;81.87
47883;BME280;37739;50.350;7.578;2023-02-04T10:39:20;101687.88;;;8.31;80.33
47883;BME280;37739;50.350;7.578;2023-02-04T10:42:00;101680.19;;;8.31;79.99
47883;BME280;37739;50.350;7.578;2023-02-04T10:44:26;101689.63;;;8.42;80.83
47883;BME280;37739;50.350;7.578;2023-02-04T10:47:03;101686.75;;;8.50;78.86
47883;BME280;37739;50.350;7.578;2023-02-04T10:49:29;101688.44;;;8.49;78.87
47883;BME280;37739;50.350;7.578;2023-02-04T10:51:58;101686.31;;;8.43;78.05
47883;BME280;37739;50.350;7.578;2023-02-04T10:54:28;101679.84;;;8.49;78.18
47883;BME280;37739;50.350;7.578;2023-02-04T11:00:03;101676.94;;;8.78;78.39
47883;BME280;37739;50.350;7.578;2023-02-04T11:02:51;101674.94;;;8.86;77.58
47883;BME280;37739;50.350;7.578;2023-02-04T11:05:21;101681.75;;;8.97;77.99
47883;BME280;37739;50.350;7.578;2023-02-04T11:07:50;101677.50;;;9.09;77.62
47883;BME280;37739;50.350;7.578;2023-02-04T11:10:29;101684.75;;;8.91;75.52
47883;BME280;37739;50.350;7.578;2023-02-04T11:15:37;101691.41;;;9.01;76.72
47883;BME280;37739;50.350;7.578;2023-02-04T11:18:23;101683.38;;;8.84;76.06
47883;BME280;37739;50.350;7.578;2023-02-04T11:20:53;101696.84;;;8.82;77.36
47883;BME280;37739;50.350;7.578;2023-02-04T11:33:47;101692.28;;;8.78;75.57
47883;BME280;37739;50.350;7.578;2023-02-04T11:36:16;101687.50;;;8.82;76.39
47883;BME280;37739;50.350;7.578;2023-02-04T11:38:46;101692.63;;;8.94;77.64
47883;BME280;37739;50.350;7.578;2023-02-04T11:41:27;101686.94;;;8.98;76.93
47883;BME280;37739;50.350;7.578;2023-02-04T11:43:57;101695.53;;;8.99;75.77
47883;BME280;37739;50.350;7.578;2023-02-04T11:46:26;101688.41;;;9.30;76.46
47883;BME280;37739;50.350;7.578;2023-02-04T11:48:53;101683.34;;;9.67;75.77
47883;BME280;37739;50.350;7.578;2023-02-04T11:51:24;101681.69;;;10.05;74.35
47883;BME280;37739;50.350;7.578;2023-02-04T11:53:51;101680.06;;;10.30;70.31
47883;BME280;37739;50.350;7.578;2023-02-04T11:56:22;101682.25;;;10.26;70.03
47883;BME280;37739;50.350;7.578;2023-02-04T11:58:50;101682.53;;;10.17;71.18
47883;BME280;37739;50.350;7.578;2023-02-04T12:01:20;101689.31;;;9.91;70.67
47883;BME280;37739;50.350;7.578;2023-02-04T12:03:48;101685.38;;;9.96;69.19
47883;BME280;37739;50.350;7.578;2023-02-04T12:06:22;101680.66;;;10.14;69.83
47883;BME280;37739;50.350;7.578;2023-02-04T12:08:50;101681.63;;;9.91;68.52
47883;BME280;37739;50.350;7.578;2023-02-04T12:11:26;101678.63;;;10.22;70.59
47883;BME280;37739;50.350;7.578;2023-02-04T12:13:56;101679.94;;;10.54;70.16
47883;BME280;37739;50.350;7.578;2023-02-04T12:16:26;101681.25;;;10.87;69.75
47883;BME280;37739;50.350;7.578;2023-02-04T12:18:54;101677.91;;;10.75;67.98
47883;BME280;37739;50.350;7.578;2023-02-04T12:21:19;101676.84;;;10.85;69.83
47883;BME280;37739;50.350;7.578;2023-02-04T12:23:47;101670.50;;;10.79;65.54
47883;BME280;37739;50.350;7.578;2023-02-04T12:26:14;101681.19;;;10.86;68.51
47883;BME280;37739;50.350;7.578;2023-02-04T12:28:45;101676.25;;;11.15;66.63
47883;BME280;37739;50.350;7.578;2023-02-04T12:31:12;101672.31;;;10.94;66.09
47883;BME280;37739;50.350;7.578;2023-02-04T12:33:37;101675.66;;;11.06;66.69
47883;BME280;37739;50.350;7.578;2023-02-04T12:36:05;101677.63;;;10.97;65.04
47883;BME280;37739;50.350;7.578;2023-02-04T12:38:31;101680.38;;;10.73;66.75
47883;BME280;37739;50.350;7.578;2023-02-04T12:40:59;101678.13;;;11.05;65.43
47883;BME280;37739;50.350;7.578;2023-02-04T12:43:26;101676.38;;;11.30;65.19
47883;BME280;37739;50.350;7.578;2023-02-04T12:45:51;101677.84;;;11.40;64.24
47883;BME280;37739;50.350;7.578;2023-02-04T12:48:17;101676.41;;;11.58;64.68
47883;BME280;37739;50.350;7.578;2023-02-04T12:50:42;101685.44;;;11.38;60.39
47883;BME280;37739;50.350;7.578;2023-02-04T12:53:08;101686.75;;;11.18;63.19
47883;BME280;37739;50.350;7.578;2023-02-04T12:55:35;101690.88;;;11.03;60.99
47883;BME280;37739;50.350;7.578;2023-02-04T12:58:01;101679.63;;;11.14;61.01
47883;BME280;37739;50.350;7.578;2023-02-04T13:00:26;101692.13;;;10.83;60.89
47883;BME280;37739;50.350;7.578;2023-02-04T13:02:52;101684.19;;;10.53;60.20
47883;BME280;37739;50.350;7.578;2023-02-04T13:05:23;101675.56;;;10.39;62.72
47883;BME280;37739;50.350;7.578;2023-02-04T13:07:51;101677.44;;;10.42;63.99
47883;BME280;37739;50.350;7.578;2023-02-04T13:10:18;101677.09;;;10.63;64.47
47883;BME280;37739;50.350;7.578;2023-02-04T13:12:45;101680.50;;;10.50;61.98
47883;BME280;37739;50.350;7.578;2023-02-04T13:15:11;101665.66;;;10.32;62.80
47883;BME280;37739;50.350;7.578;2023-02-04T13:17:38;101670.09;;;10.35;63.16
47883;BME280;37739;50.350;7.578;2023-02-04T13:20:05;101660.72;;;10.60;63.40
47883;BME280;37739;50.350;7.578;2023-02-04T13:22:31;101659.63;;;10.57;62.65
47883;BME280;37739;50.350;7.578;2023-02-04T13:24:56;101655.00;;;10.65;64.15
47883;BME280;37739;50.350;7.578;2023-02-04T13:27:24;101655.00;;;10.65;61.83